createdAt,value
2017-05-30T00:00:21.381Z,0
2017-05-30T00:01:01.929Z,0
2017-05-30T00:01:42.469Z,0
2017-05-30T00:02:23.014Z,0
2017-05-30T00:03:03.565Z,0
2017-05-30T00:03:44.116Z,0
2017-05-30T00:04:24.643Z,0
2017-05-30T00:05:05.181Z,0
2017-05-30T00:05:45.722Z,0
2017-05-30T00:06:26.268Z,0
2017-05-30T00:07:06.813Z,0
2017-05-30T00:07:47.363Z,0
2017-05-30T00:08:27.904Z,0
2017-05-30T00:09:08.445Z,0
2017-05-30T00:09:49.003Z,0
2017-05-30T00:10:29.541Z,0
2017-05-30T00:11:10.092Z,0
2017-05-30T00:11:50.702Z,0
2017-05-30T00:12:31.251Z,0
2017-05-30T00:13:11.791Z,0
2017-05-30T00:13:52.329Z,0
2017-05-30T00:14:32.869Z,0
2017-05-30T00:15:13.425Z,0
2017-05-30T00:15:53.969Z,0
2017-05-30T00:16:34.498Z,0
2017-05-30T00:17:15.027Z,0
2017-05-30T00:17:55.581Z,0
2017-05-30T00:18:36.119Z,0
2017-05-30T00:19:16.652Z,0
2017-05-30T00:19:57.191Z,0
2017-05-30T00:20:37.735Z,0
2017-05-30T00:21:18.272Z,0
2017-05-30T00:21:58.810Z,0
2017-05-30T00:22:39.354Z,0
2017-05-30T00:23:19.888Z,0
2017-05-30T00:24:00.434Z,0
2017-05-30T00:24:40.974Z,0
2017-05-30T00:25:21.506Z,0
2017-05-30T00:26:02.094Z,0
2017-05-30T00:26:42.649Z,0
2017-05-30T00:27:23.195Z,0
2017-05-30T00:28:03.735Z,0
2017-05-30T00:28:44.278Z,0
2017-05-30T00:29:24.817Z,0
2017-05-30T00:30:05.350Z,0
2017-05-30T00:30:45.899Z,0
2017-05-30T00:31:26.433Z,0
2017-05-30T00:32:06.962Z,0
2017-05-30T00:32:47.503Z,0
2017-05-30T00:33:28.044Z,0
2017-05-30T00:34:08.604Z,0
2017-05-30T00:34:49.136Z,0
2017-05-30T00:35:29.681Z,0
2017-05-30T00:36:10.220Z,0
2017-05-30T00:36:50.764Z,0
2017-05-30T00:37:31.304Z,0
2017-05-30T00:38:11.845Z,0
2017-05-30T00:38:52.390Z,0
2017-05-30T00:39:32.930Z,0
2017-05-30T00:40:13.473Z,0
2017-05-30T00:40:54.025Z,0
2017-05-30T00:41:34.563Z,0
2017-05-30T00:42:15.102Z,0
2017-05-30T00:42:55.640Z,0
2017-05-30T00:43:36.182Z,0
2017-05-30T00:44:16.722Z,0
2017-05-30T00:44:57.261Z,0
2017-05-30T00:45:37.811Z,0
2017-05-30T00:46:18.355Z,0
2017-05-30T00:46:58.906Z,0
2017-05-30T00:47:39.448Z,0
2017-05-30T00:48:19.983Z,0
2017-05-30T00:49:00.532Z,0
2017-05-30T00:49:41.074Z,0
2017-05-30T00:50:21.611Z,0
2017-05-30T00:51:02.154Z,0
2017-05-30T00:51:42.699Z,0
2017-05-30T00:52:23.247Z,0
2017-05-30T00:53:03.791Z,0
2017-05-30T00:53:44.318Z,0
2017-05-30T00:54:24.863Z,0
2017-05-30T00:55:05.400Z,0
2017-05-30T00:55:45.950Z,0
2017-05-30T00:56:26.485Z,0
2017-05-30T00:57:07.041Z,0
2017-05-30T00:57:47.592Z,0
2017-05-30T00:58:28.136Z,0
2017-05-30T00:59:08.682Z,0
2017-05-30T00:59:49.257Z,0
2017-05-30T01:00:29.814Z,0
2017-05-30T01:01:10.363Z,0
2017-05-30T01:01:50.914Z,0
2017-05-30T01:02:31.458Z,0
2017-05-30T01:03:11.998Z,0
2017-05-30T01:03:52.545Z,0
2017-05-30T01:04:33.085Z,0
2017-05-30T01:05:13.620Z,0
2017-05-30T01:05:54.166Z,0
2017-05-30T01:06:34.708Z,0
2017-05-30T01:07:15.237Z,0
2017-05-30T01:07:55.786Z,0
2017-05-30T01:08:36.329Z,0
2017-05-30T01:09:16.873Z,0
2017-05-30T01:09:57.422Z,0
2017-05-30T01:10:37.969Z,0
2017-05-30T01:11:18.514Z,0
2017-05-30T01:11:59.069Z,0
2017-05-30T01:12:39.610Z,0
2017-05-30T01:13:20.144Z,0
2017-05-30T01:14:00.694Z,0
2017-05-30T01:14:41.242Z,0
2017-05-30T01:15:21.788Z,0
2017-05-30T01:16:02.323Z,0
2017-05-30T01:16:42.869Z,0
2017-05-30T01:17:23.409Z,0
2017-05-30T01:18:03.952Z,0
2017-05-30T01:18:44.500Z,0
2017-05-30T01:19:25.035Z,0
2017-05-30T01:20:05.587Z,0
2017-05-30T01:20:46.122Z,0
2017-05-30T01:21:26.683Z,0
2017-05-30T01:22:07.217Z,0
2017-05-30T01:22:47.770Z,0
2017-05-30T01:23:28.314Z,0
2017-05-30T01:24:08.863Z,0
2017-05-30T01:24:49.393Z,0
2017-05-30T01:25:29.936Z,0
2017-05-30T01:26:10.478Z,0
2017-05-30T01:26:51.024Z,0
2017-05-30T01:27:31.564Z,0
2017-05-30T01:28:12.146Z,0
2017-05-30T01:28:52.684Z,0
2017-05-30T01:29:33.217Z,0
2017-05-30T01:30:13.764Z,0
2017-05-30T01:30:54.316Z,0
2017-05-30T01:31:34.863Z,0
2017-05-30T01:32:15.408Z,0
2017-05-30T01:32:55.952Z,0
2017-05-30T01:33:36.499Z,0
2017-05-30T01:34:17.049Z,0
2017-05-30T01:34:57.602Z,0
2017-05-30T01:35:38.154Z,0
2017-05-30T01:36:18.705Z,0
2017-05-30T01:36:59.254Z,0
2017-05-30T01:37:39.796Z,0
2017-05-30T01:38:20.344Z,0
2017-05-30T01:39:00.904Z,0
2017-05-30T01:39:41.454Z,0
2017-05-30T01:40:22.008Z,0
2017-05-30T01:41:02.554Z,0
2017-05-30T01:41:43.096Z,0
2017-05-30T01:42:23.647Z,0
2017-05-30T01:43:04.198Z,0
2017-05-30T01:43:44.747Z,0
2017-05-30T01:44:25.298Z,0
2017-05-30T01:45:05.852Z,0
2017-05-30T01:45:46.400Z,0
2017-05-30T01:46:26.948Z,0
2017-05-30T01:47:07.494Z,0
2017-05-30T01:47:48.041Z,0
2017-05-30T01:48:28.591Z,0
2017-05-30T01:49:09.138Z,0
2017-05-30T01:49:49.681Z,0
2017-05-30T01:50:30.222Z,0
2017-05-30T01:51:10.775Z,0
2017-05-30T01:51:51.317Z,0
2017-05-30T01:52:31.854Z,0
2017-05-30T01:53:12.379Z,0
2017-05-30T01:53:52.930Z,0
2017-05-30T01:54:33.471Z,0
2017-05-30T01:55:14.013Z,0
2017-05-30T01:55:54.556Z,0
2017-05-30T01:56:35.100Z,0
2017-05-30T01:57:15.650Z,0
2017-05-30T01:57:56.191Z,0
2017-05-30T01:58:36.753Z,0
2017-05-30T01:59:17.297Z,0
2017-05-30T01:59:57.836Z,0
2017-05-30T02:00:38.381Z,0
2017-05-30T02:01:18.925Z,0
2017-05-30T02:01:59.496Z,0
2017-05-30T02:02:40.037Z,0
2017-05-30T02:03:20.586Z,0
2017-05-30T02:04:01.128Z,0
2017-05-30T02:04:41.670Z,0
2017-05-30T02:05:22.214Z,0
2017-05-30T02:06:02.758Z,0
2017-05-30T02:06:43.300Z,0
2017-05-30T02:07:23.846Z,0
2017-05-30T02:08:04.394Z,0
2017-05-30T02:08:44.943Z,0
2017-05-30T02:09:25.481Z,0
2017-05-30T02:10:06.027Z,0
2017-05-30T02:10:46.568Z,0
2017-05-30T02:11:27.117Z,0
2017-05-30T02:12:07.658Z,0
2017-05-30T02:12:48.211Z,0
2017-05-30T02:13:28.751Z,0
2017-05-30T02:14:09.301Z,0
2017-05-30T02:14:49.851Z,0
2017-05-30T02:15:30.393Z,0
2017-05-30T02:16:10.930Z,0
2017-05-30T02:16:51.470Z,0
2017-05-30T02:17:32.017Z,0
2017-05-30T02:18:12.562Z,0
2017-05-30T02:18:53.107Z,0
2017-05-30T02:19:33.652Z,0
2017-05-30T02:20:14.204Z,0
2017-05-30T02:20:54.756Z,0
2017-05-30T02:21:35.307Z,0
2017-05-30T02:22:15.969Z,0
2017-05-30T02:22:56.516Z,0
2017-05-30T02:23:37.063Z,0
2017-05-30T02:24:17.615Z,0
2017-05-30T02:24:58.162Z,0
2017-05-30T02:25:38.713Z,0
2017-05-30T02:26:19.261Z,0
2017-05-30T02:26:59.814Z,0
2017-05-30T02:27:40.367Z,0
2017-05-30T02:28:20.917Z,0
2017-05-30T02:29:01.465Z,0
2017-05-30T02:29:42.014Z,0
2017-05-30T02:30:22.555Z,0
2017-05-30T02:31:03.105Z,0
2017-05-30T02:31:43.656Z,0
2017-05-30T02:32:24.197Z,0
2017-05-30T02:33:04.745Z,0
2017-05-30T02:33:45.300Z,0
2017-05-30T02:34:25.840Z,0
2017-05-30T02:35:06.378Z,0
2017-05-30T02:35:46.923Z,0
2017-05-30T02:36:27.469Z,0
2017-05-30T02:37:08.001Z,0
2017-05-30T02:37:48.546Z,0
2017-05-30T02:38:29.091Z,0
2017-05-30T02:39:09.639Z,0
2017-05-30T02:39:50.182Z,0
2017-05-30T02:40:30.729Z,0
2017-05-30T02:41:11.267Z,0
2017-05-30T02:41:51.848Z,0
2017-05-30T02:42:32.395Z,0
2017-05-30T02:43:12.942Z,0
2017-05-30T02:43:53.487Z,0
2017-05-30T02:44:34.034Z,0
2017-05-30T02:45:14.579Z,0
2017-05-30T02:45:55.128Z,0
2017-05-30T02:46:35.667Z,0
2017-05-30T02:47:16.207Z,0
2017-05-30T02:47:56.742Z,0
2017-05-30T02:48:37.282Z,0
2017-05-30T02:49:17.827Z,0
2017-05-30T02:49:58.369Z,0
2017-05-30T02:50:38.912Z,0
2017-05-30T02:51:19.454Z,0
2017-05-30T02:51:59.996Z,0
2017-05-30T02:52:40.542Z,0
2017-05-30T02:53:21.094Z,0
2017-05-30T02:54:01.643Z,0
2017-05-30T02:54:42.194Z,0
2017-05-30T02:55:22.735Z,0
2017-05-30T02:56:03.334Z,0
2017-05-30T02:56:43.868Z,0
2017-05-30T02:57:24.414Z,0
2017-05-30T02:58:04.959Z,0
2017-05-30T02:58:45.507Z,0
2017-05-30T02:59:26.056Z,0
2017-05-30T03:00:06.605Z,0
2017-05-30T03:00:47.154Z,0
2017-05-30T03:01:27.698Z,0
2017-05-30T03:02:08.255Z,0
2017-05-30T03:02:48.805Z,0
2017-05-30T03:03:29.344Z,0
2017-05-30T03:04:09.902Z,0
2017-05-30T03:04:50.442Z,0
2017-05-30T03:05:30.991Z,0
2017-05-30T03:06:11.540Z,0
2017-05-30T03:06:52.080Z,0
2017-05-30T03:07:32.625Z,0
2017-05-30T03:08:13.165Z,0
2017-05-30T03:08:53.706Z,0
2017-05-30T03:09:34.251Z,0
2017-05-30T03:10:14.788Z,0
2017-05-30T03:10:55.326Z,0
2017-05-30T03:11:35.873Z,0
2017-05-30T03:12:16.415Z,0
2017-05-30T03:12:56.967Z,0
2017-05-30T03:13:37.524Z,0
2017-05-30T03:14:18.061Z,0
2017-05-30T03:14:58.664Z,0
2017-05-30T03:15:39.159Z,0
2017-05-30T03:16:19.713Z,0
2017-05-30T03:17:00.263Z,0
2017-05-30T03:17:40.807Z,0
2017-05-30T03:18:21.353Z,0
2017-05-30T03:19:01.899Z,0
2017-05-30T03:19:42.455Z,0
2017-05-30T03:20:23.002Z,0
2017-05-30T03:21:03.542Z,0
2017-05-30T03:21:44.094Z,0
2017-05-30T03:22:24.646Z,0
2017-05-30T03:23:05.172Z,0
2017-05-30T03:23:45.712Z,0
2017-05-30T03:24:26.259Z,0
2017-05-30T03:25:06.801Z,0
2017-05-30T03:25:47.346Z,0
2017-05-30T03:26:27.894Z,0
2017-05-30T03:27:08.440Z,0
2017-05-30T03:27:48.977Z,5
2017-05-30T03:28:29.541Z,5
2017-05-30T03:29:10.079Z,5
2017-05-30T03:29:50.652Z,5
2017-05-30T03:30:31.190Z,5
2017-05-30T03:31:11.732Z,5
2017-05-30T03:31:52.268Z,5
2017-05-30T03:32:32.790Z,5
2017-05-30T03:33:13.319Z,5
2017-05-30T03:33:53.876Z,5
2017-05-30T03:34:34.418Z,5
2017-05-30T03:35:14.967Z,5
2017-05-30T03:35:55.520Z,5
2017-05-30T03:36:36.067Z,5
2017-05-30T03:37:16.607Z,5
2017-05-30T03:37:57.148Z,5
2017-05-30T03:38:37.699Z,5
2017-05-30T03:39:18.261Z,10
2017-05-30T03:39:58.812Z,10
2017-05-30T03:40:39.332Z,10
2017-05-30T03:41:19.867Z,10
2017-05-30T03:42:00.403Z,10
2017-05-30T03:42:40.949Z,10
2017-05-30T03:43:21.494Z,10
2017-05-30T03:44:02.032Z,10
2017-05-30T03:44:42.582Z,10
2017-05-30T03:45:23.125Z,10
2017-05-30T03:46:03.668Z,10
2017-05-30T03:46:44.217Z,10
2017-05-30T03:47:24.765Z,10
2017-05-30T03:48:05.317Z,10
2017-05-30T03:48:45.864Z,10
2017-05-30T03:49:26.410Z,10
2017-05-30T03:50:07.032Z,10
2017-05-30T03:50:47.578Z,10
2017-05-30T03:51:28.131Z,10
2017-05-30T03:52:08.672Z,10
2017-05-30T03:52:49.214Z,10
2017-05-30T03:53:29.748Z,15
2017-05-30T03:54:10.288Z,15
2017-05-30T03:54:50.832Z,15
2017-05-30T03:55:31.378Z,15
2017-05-30T03:56:11.922Z,20
2017-05-30T03:56:52.473Z,20
2017-05-30T03:57:33.007Z,20
2017-05-30T03:58:13.558Z,20
2017-05-30T03:58:54.109Z,20
2017-05-30T03:59:34.661Z,20
2017-05-30T04:00:15.211Z,20
2017-05-30T04:00:55.783Z,20
2017-05-30T04:01:36.320Z,20
2017-05-30T04:02:16.874Z,25
2017-05-30T04:02:57.440Z,25
2017-05-30T04:03:37.989Z,25
2017-05-30T04:04:18.536Z,25
2017-05-30T04:04:59.094Z,25
2017-05-30T04:05:39.636Z,25
2017-05-30T04:06:20.192Z,25
2017-05-30T04:07:00.812Z,25
2017-05-30T04:07:41.371Z,30
2017-05-30T04:08:21.919Z,30
2017-05-30T04:09:02.467Z,30
2017-05-30T04:09:43.021Z,30
2017-05-30T04:10:23.572Z,30
2017-05-30T04:11:04.120Z,30
2017-05-30T04:11:44.670Z,30
2017-05-30T04:12:25.213Z,35
2017-05-30T04:13:05.770Z,35
2017-05-30T04:13:46.327Z,35
2017-05-30T04:14:26.876Z,35
2017-05-30T04:15:07.412Z,35
2017-05-30T04:15:47.953Z,35
2017-05-30T04:16:28.495Z,40
2017-05-30T04:17:09.031Z,40
2017-05-30T04:17:49.573Z,40
2017-05-30T04:18:30.105Z,45
2017-05-30T04:19:10.653Z,45
2017-05-30T04:19:51.205Z,45
2017-05-30T04:20:31.755Z,50
2017-05-30T04:21:12.291Z,50
2017-05-30T04:21:52.852Z,50
2017-05-30T04:22:33.391Z,55
2017-05-30T04:23:13.949Z,55
2017-05-30T04:23:54.492Z,60
2017-05-30T04:24:35.029Z,60
2017-05-30T04:25:15.584Z,65
2017-05-30T04:25:56.135Z,65
2017-05-30T04:26:36.685Z,65
2017-05-30T04:27:17.228Z,65
2017-05-30T04:27:57.778Z,65
2017-05-30T04:28:38.356Z,65
2017-05-30T04:29:18.877Z,60
2017-05-30T04:29:59.435Z,60
2017-05-30T04:30:39.978Z,65
2017-05-30T04:31:20.527Z,65
2017-05-30T04:32:01.079Z,65
2017-05-30T04:32:41.622Z,65
2017-05-30T04:33:22.174Z,65
2017-05-30T04:34:02.738Z,65
2017-05-30T04:34:43.281Z,65
2017-05-30T04:35:23.833Z,65
2017-05-30T04:36:04.384Z,65
2017-05-30T04:36:44.938Z,65
2017-05-30T04:37:25.492Z,70
2017-05-30T04:38:06.101Z,70
2017-05-30T04:38:46.586Z,75
2017-05-30T04:39:27.140Z,80
2017-05-30T04:40:07.690Z,85
2017-05-30T04:40:48.242Z,85
2017-05-30T04:41:28.775Z,85
2017-05-30T04:42:09.329Z,85
2017-05-30T04:42:49.872Z,85
2017-05-30T04:43:30.417Z,80
2017-05-30T04:44:10.961Z,85
2017-05-30T04:44:51.508Z,85
2017-05-30T04:45:32.056Z,80
2017-05-30T04:46:12.606Z,80
2017-05-30T04:46:53.154Z,80
2017-05-30T04:47:33.706Z,80
2017-05-30T04:48:14.262Z,80
2017-05-30T04:48:54.813Z,85
2017-05-30T04:49:35.363Z,90
2017-05-30T04:50:15.911Z,90
2017-05-30T04:50:56.459Z,95
2017-05-30T04:51:37.001Z,90
2017-05-30T04:52:17.620Z,90
2017-05-30T04:52:58.180Z,90
2017-05-30T04:53:38.734Z,90
2017-05-30T04:54:19.307Z,90
2017-05-30T04:54:59.860Z,95
2017-05-30T04:55:40.407Z,90
2017-05-30T04:56:20.961Z,90
2017-05-30T04:57:01.507Z,90
2017-05-30T04:57:42.056Z,90
2017-05-30T04:58:22.614Z,90
2017-05-30T04:59:03.163Z,90
2017-05-30T04:59:43.706Z,90
2017-05-30T05:00:24.253Z,95
2017-05-30T05:01:04.809Z,95
2017-05-30T05:01:45.362Z,95
2017-05-30T05:02:25.912Z,100
2017-05-30T05:03:06.471Z,100
2017-05-30T05:03:47.000Z,100
2017-05-30T05:04:27.549Z,105
2017-05-30T05:05:08.108Z,105
2017-05-30T05:05:48.655Z,105
2017-05-30T05:06:29.217Z,110
2017-05-30T05:07:09.773Z,110
2017-05-30T05:07:50.322Z,110
2017-05-30T05:08:30.861Z,115
2017-05-30T05:09:11.454Z,115
2017-05-30T05:09:51.953Z,110
2017-05-30T05:10:32.523Z,110
2017-05-30T05:11:13.063Z,110
2017-05-30T05:11:53.650Z,110
2017-05-30T05:12:34.191Z,110
2017-05-30T05:13:14.736Z,110
2017-05-30T05:13:55.281Z,110
2017-05-30T05:14:35.833Z,110
2017-05-30T05:15:16.378Z,110
2017-05-30T05:15:56.926Z,110
2017-05-30T05:16:37.473Z,110
2017-05-30T05:17:18.025Z,110
2017-05-30T05:17:58.576Z,110
2017-05-30T05:18:39.141Z,115
2017-05-30T05:19:19.689Z,115
2017-05-30T05:20:00.241Z,115
2017-05-30T05:20:40.791Z,115
2017-05-30T05:21:21.336Z,115
2017-05-30T05:22:01.886Z,120
2017-05-30T05:22:42.444Z,125
2017-05-30T05:23:22.991Z,125
2017-05-30T05:24:03.544Z,130
2017-05-30T05:24:44.093Z,130
2017-05-30T05:25:24.651Z,120
2017-05-30T05:26:05.200Z,115
2017-05-30T05:26:45.748Z,125
2017-05-30T05:27:26.295Z,115
2017-05-30T05:28:06.844Z,120
2017-05-30T05:28:47.395Z,115
2017-05-30T05:29:27.953Z,115
2017-05-30T05:30:09.483Z,115
2017-05-30T05:30:50.035Z,115
2017-05-30T05:31:30.583Z,110
2017-05-30T05:32:11.111Z,110
2017-05-30T05:32:51.646Z,115
2017-05-30T05:33:32.195Z,115
2017-05-30T05:34:12.743Z,115
2017-05-30T05:34:53.294Z,115
2017-05-30T05:35:33.844Z,120
2017-05-30T05:36:14.395Z,125
2017-05-30T05:36:54.938Z,130
2017-05-30T05:37:35.486Z,135
2017-05-30T05:38:16.568Z,140
2017-05-30T05:38:56.576Z,145
2017-05-30T05:39:37.128Z,145
2017-05-30T05:40:17.671Z,145
2017-05-30T05:40:58.253Z,145
2017-05-30T05:41:38.775Z,145
2017-05-30T05:42:19.345Z,150
2017-05-30T05:42:59.889Z,150
2017-05-30T05:43:40.438Z,150
2017-05-30T05:44:20.987Z,150
2017-05-30T05:45:01.537Z,150
2017-05-30T05:45:42.285Z,165
2017-05-30T05:46:22.987Z,175
2017-05-30T05:47:03.532Z,180
2017-05-30T05:47:44.068Z,185
2017-05-30T05:48:24.618Z,180
2017-05-30T05:49:05.172Z,175
2017-05-30T05:49:45.724Z,175
2017-05-30T05:50:26.273Z,175
2017-05-30T05:51:06.810Z,175
2017-05-30T05:51:47.365Z,185
2017-05-30T05:52:27.912Z,190
2017-05-30T05:53:08.463Z,190
2017-05-30T05:53:49.009Z,190
2017-05-30T05:54:29.547Z,190
2017-05-30T05:55:10.087Z,185
2017-05-30T05:55:50.691Z,190
2017-05-30T05:56:31.214Z,185
2017-05-30T05:57:11.766Z,190
2017-05-30T05:57:52.319Z,190
2017-05-30T05:58:32.871Z,190
2017-05-30T05:59:13.419Z,185
2017-05-30T05:59:54.581Z,185
2017-05-30T06:00:34.528Z,185
2017-05-30T06:01:15.087Z,185
2017-05-30T06:01:55.638Z,185
2017-05-30T06:02:36.181Z,190
2017-05-30T06:03:16.730Z,195
2017-05-30T06:03:57.282Z,200
2017-05-30T06:04:37.833Z,205
2017-05-30T06:05:18.391Z,210
2017-05-30T06:05:58.939Z,215
2017-05-30T06:06:39.486Z,210
2017-05-30T06:07:20.035Z,205
2017-05-30T06:08:00.585Z,205
2017-05-30T06:08:41.135Z,200
2017-05-30T06:09:21.684Z,195
2017-05-30T06:10:02.238Z,195
2017-05-30T06:10:43.616Z,190
2017-05-30T06:11:24.174Z,190
2017-05-30T06:12:04.720Z,195
2017-05-30T06:12:45.274Z,205
2017-05-30T06:13:25.819Z,215
2017-05-30T06:14:06.366Z,220
2017-05-30T06:14:46.913Z,220
2017-05-30T06:15:27.463Z,220
2017-05-30T06:16:08.014Z,225
2017-05-30T06:16:48.565Z,220
2017-05-30T06:17:29.106Z,220
2017-05-30T06:18:09.665Z,210
2017-05-30T06:18:50.219Z,210
2017-05-30T06:19:30.769Z,210
2017-05-30T06:20:11.316Z,210
2017-05-30T06:20:51.866Z,215
2017-05-30T06:21:32.423Z,220
2017-05-30T06:22:12.980Z,225
2017-05-30T06:22:53.531Z,225
2017-05-30T06:23:34.072Z,230
2017-05-30T06:24:14.623Z,230
2017-05-30T06:24:55.173Z,230
2017-05-30T06:25:36.593Z,225
2017-05-30T06:26:16.275Z,220
2017-05-30T06:26:56.822Z,215
2017-05-30T06:27:37.377Z,210
2017-05-30T06:28:17.930Z,215
2017-05-30T06:28:58.481Z,215
2017-05-30T06:29:39.037Z,225
2017-05-30T06:30:19.583Z,220
2017-05-30T06:31:00.143Z,215
2017-05-30T06:31:40.700Z,215
2017-05-30T06:32:21.249Z,220
2017-05-30T06:33:01.796Z,215
2017-05-30T06:33:42.347Z,225
2017-05-30T06:34:22.903Z,225
2017-05-30T06:35:03.450Z,230
2017-05-30T06:35:43.997Z,235
2017-05-30T06:36:24.557Z,240
2017-05-30T06:37:05.108Z,240
2017-05-30T06:37:45.666Z,240
2017-05-30T06:38:26.252Z,245
2017-05-30T06:39:06.846Z,240
2017-05-30T06:39:47.398Z,245
2017-05-30T06:40:27.953Z,245
2017-05-30T06:41:08.514Z,250
2017-05-30T06:41:49.064Z,250
2017-05-30T06:42:29.611Z,255
2017-05-30T06:43:10.164Z,260
2017-05-30T06:43:51.603Z,265
2017-05-30T06:46:11.001Z,270
2017-05-30T06:46:51.509Z,280
2017-05-30T06:47:32.018Z,290
2017-05-30T06:48:12.552Z,295
2017-05-30T06:48:53.096Z,305
2017-05-30T06:49:33.639Z,310
2017-05-30T06:50:14.189Z,320
2017-05-30T06:50:54.727Z,320
2017-05-30T06:51:35.273Z,335
2017-05-30T06:52:15.821Z,340
2017-05-30T06:52:56.366Z,335
2017-05-30T06:53:36.918Z,330
2017-05-30T06:54:17.512Z,325
2017-05-30T06:54:58.048Z,320
2017-05-30T06:55:38.603Z,330
2017-05-30T06:56:19.145Z,350
2017-05-30T06:56:59.698Z,370
2017-05-30T06:57:40.238Z,390
2017-05-30T06:58:20.797Z,405
2017-05-30T06:59:01.368Z,420
2017-05-30T06:59:41.919Z,440
2017-05-30T07:00:22.464Z,450
2017-05-30T07:01:03.008Z,460
2017-05-30T07:01:43.543Z,450
2017-05-30T07:02:24.106Z,440
2017-05-30T07:03:04.645Z,425
2017-05-30T07:03:45.191Z,410
2017-05-30T07:04:25.741Z,400
2017-05-30T07:05:06.267Z,400
2017-05-30T07:05:46.812Z,405
2017-05-30T07:06:27.355Z,435
2017-05-30T07:07:07.906Z,400
2017-05-30T07:07:48.450Z,400
2017-05-30T07:08:28.993Z,385
2017-05-30T07:09:09.533Z,385
2017-05-30T07:09:50.087Z,385
2017-05-30T07:10:30.632Z,375
2017-05-30T07:11:11.174Z,380
2017-05-30T07:11:51.719Z,365
2017-05-30T07:12:32.264Z,375
2017-05-30T07:13:12.819Z,380
2017-05-30T07:13:53.365Z,365
2017-05-30T07:14:33.905Z,360
2017-05-30T07:15:14.447Z,355
2017-05-30T07:15:55.000Z,345
2017-05-30T07:16:35.551Z,340
2017-05-30T07:17:16.082Z,340
2017-05-30T07:17:56.632Z,385
2017-05-30T07:18:37.163Z,365
2017-05-30T07:19:17.703Z,395
2017-05-30T07:19:58.244Z,395
2017-05-30T07:20:38.790Z,390
2017-05-30T07:21:19.347Z,375
2017-05-30T07:21:59.895Z,370
2017-05-30T07:22:40.444Z,375
2017-05-30T07:23:20.989Z,375
2017-05-30T07:24:01.536Z,370
2017-05-30T07:24:42.085Z,375
2017-05-30T07:25:22.639Z,370
2017-05-30T07:26:03.194Z,350
2017-05-30T07:26:43.742Z,370
2017-05-30T07:27:24.341Z,380
2017-05-30T07:28:04.821Z,380
2017-05-30T07:28:45.375Z,380
2017-05-30T07:29:25.932Z,385
2017-05-30T07:30:06.484Z,395
2017-05-30T07:30:47.034Z,390
2017-05-30T07:31:27.588Z,395
2017-05-30T07:32:08.138Z,405
2017-05-30T07:32:48.693Z,410
2017-05-30T07:33:29.229Z,455
2017-05-30T07:34:09.778Z,645
2017-05-30T07:34:50.327Z,930
2017-05-30T07:35:30.874Z,1270
2017-05-30T07:36:11.426Z,1410
2017-05-30T07:36:51.967Z,1235
2017-05-30T07:37:32.514Z,1620
2017-05-30T07:38:13.128Z,1665
2017-05-30T07:38:53.592Z,1625
2017-05-30T07:39:34.117Z,1620
2017-05-30T07:40:14.665Z,1535
2017-05-30T07:40:55.190Z,1630
2017-05-30T07:41:35.737Z,1715
2017-05-30T07:42:16.284Z,1710
2017-05-30T07:42:56.834Z,1620
2017-05-30T07:43:37.384Z,1675
2017-05-30T07:44:17.922Z,1630
2017-05-30T07:44:58.482Z,1625
2017-05-30T07:45:39.035Z,1560
2017-05-30T07:46:19.584Z,1560
2017-05-30T07:47:00.141Z,1165
2017-05-30T07:47:40.691Z,710
2017-05-30T07:48:21.243Z,470
2017-05-30T07:49:01.794Z,470
2017-05-30T07:49:42.332Z,445
2017-05-30T07:50:22.888Z,445
2017-05-30T07:51:03.452Z,440
2017-05-30T07:51:43.970Z,440
2017-05-30T07:52:24.505Z,445
2017-05-30T07:53:05.056Z,440
2017-05-30T07:53:45.603Z,440
2017-05-30T07:54:26.139Z,440
2017-05-30T07:55:06.684Z,445
2017-05-30T07:55:47.236Z,445
2017-05-30T07:56:27.788Z,445
2017-05-30T07:57:08.338Z,450
2017-05-30T07:57:48.877Z,460
2017-05-30T07:58:29.415Z,465
2017-05-30T07:59:09.976Z,455
2017-05-30T07:59:50.516Z,465
2017-05-30T08:00:31.072Z,465
2017-05-30T08:01:11.624Z,460
2017-05-30T08:01:52.182Z,460
2017-05-30T08:02:32.731Z,470
2017-05-30T08:03:13.283Z,470
2017-05-30T08:03:53.829Z,480
2017-05-30T08:04:34.381Z,495
2017-05-30T08:05:14.922Z,600
2017-05-30T08:05:55.466Z,1160
2017-05-30T08:06:35.996Z,1475
2017-05-30T08:07:16.544Z,2080
2017-05-30T08:07:57.085Z,2180
2017-05-30T08:08:37.665Z,2020
2017-05-30T08:09:18.200Z,1900
2017-05-30T08:09:58.753Z,1765
2017-05-30T08:10:39.308Z,1860
2017-05-30T08:11:19.846Z,2005
2017-05-30T08:12:00.391Z,2115
2017-05-30T08:12:40.926Z,1930
2017-05-30T08:13:21.459Z,2040
2017-05-30T08:14:02.007Z,2045
2017-05-30T08:14:42.561Z,2000
2017-05-30T08:15:23.110Z,1920
2017-05-30T08:16:03.658Z,2140
2017-05-30T08:16:44.204Z,2150
2017-05-30T08:17:24.754Z,2015
2017-05-30T08:18:05.308Z,2050
2017-05-30T08:18:45.857Z,2280
2017-05-30T08:19:26.397Z,2325
2017-05-30T08:20:06.938Z,2350
2017-05-30T08:20:47.484Z,2490
2017-05-30T08:21:28.057Z,2465
2017-05-30T08:22:08.601Z,2560
2017-05-30T08:22:49.155Z,2555
2017-05-30T08:23:29.710Z,2520
2017-05-30T08:24:10.261Z,2455
2017-05-30T08:24:50.811Z,2325
2017-05-30T08:25:31.357Z,2335
2017-05-30T08:26:11.902Z,2380
2017-05-30T08:26:52.458Z,2390
2017-05-30T08:27:33.010Z,2345
2017-05-30T08:28:13.565Z,2180
2017-05-30T08:28:54.118Z,2225
2017-05-30T08:29:34.663Z,2215
2017-05-30T08:30:15.214Z,2410
2017-05-30T08:30:55.752Z,2425
2017-05-30T08:31:36.298Z,2555
2017-05-30T08:32:16.860Z,2455
2017-05-30T08:32:57.417Z,2265
2017-05-30T08:33:38.007Z,2255
2017-05-30T08:34:18.515Z,2225
2017-05-30T08:34:59.082Z,2395
2017-05-30T08:35:39.625Z,2330
2017-05-30T08:36:20.174Z,2325
2017-05-30T08:37:00.727Z,2275
2017-05-30T08:37:41.273Z,2230
2017-05-30T08:38:21.828Z,2135
2017-05-30T08:39:02.411Z,2235
2017-05-30T08:39:42.911Z,2355
2017-05-30T08:40:23.455Z,2690
2017-05-30T08:41:03.993Z,2645
2017-05-30T08:41:44.557Z,2130
2017-05-30T08:42:25.126Z,2420
2017-05-30T08:43:05.685Z,2595
2017-05-30T08:43:46.227Z,2055
2017-05-30T08:44:26.830Z,2240
2017-05-30T08:45:07.321Z,1565
2017-05-30T08:45:47.882Z,710
2017-05-30T08:46:28.437Z,460
2017-05-30T08:47:08.989Z,520
2017-05-30T08:47:49.543Z,820
2017-05-30T08:48:30.079Z,1215
2017-05-30T08:49:10.640Z,2510
2017-05-30T08:49:51.185Z,2995
2017-05-30T08:50:31.734Z,2880
2017-05-30T08:51:12.290Z,2530
2017-05-30T08:51:52.844Z,2610
2017-05-30T08:52:33.378Z,2100
2017-05-30T08:53:13.927Z,1945
2017-05-30T08:53:54.495Z,1790
2017-05-30T08:54:35.046Z,1675
2017-05-30T08:55:15.596Z,1650
2017-05-30T08:55:56.149Z,1625
2017-05-30T08:56:36.700Z,1560
2017-05-30T08:57:17.251Z,1740
2017-05-30T08:57:57.801Z,1475
2017-05-30T08:58:38.343Z,1530
2017-05-30T08:59:18.911Z,1800
2017-05-30T08:59:59.453Z,2250
2017-05-30T09:00:40.005Z,2125
2017-05-30T09:01:20.559Z,1575
2017-05-30T09:02:01.105Z,1355
2017-05-30T09:02:41.658Z,1220
2017-05-30T09:03:22.211Z,1145
2017-05-30T09:04:02.760Z,1030
2017-05-30T09:04:43.312Z,1085
2017-05-30T09:05:23.862Z,1200
2017-05-30T09:06:04.409Z,1210
2017-05-30T09:06:44.962Z,1205
2017-05-30T09:07:25.514Z,1130
2017-05-30T09:08:06.051Z,1095
2017-05-30T09:08:46.614Z,1075
2017-05-30T09:09:27.162Z,1100
2017-05-30T09:10:07.705Z,1120
2017-05-30T09:10:48.261Z,1185
2017-05-30T09:11:28.814Z,1065
2017-05-30T09:12:09.356Z,950
2017-05-30T09:12:49.929Z,780
2017-05-30T09:13:30.470Z,710
2017-05-30T09:14:11.018Z,670
2017-05-30T09:14:51.571Z,635
2017-05-30T09:15:32.108Z,620
2017-05-30T09:16:12.661Z,615
2017-05-30T09:16:53.229Z,615
2017-05-30T09:17:33.766Z,610
2017-05-30T09:18:14.305Z,610
2017-05-30T09:18:54.852Z,610
2017-05-30T09:19:35.403Z,610
2017-05-30T09:20:15.953Z,615
2017-05-30T09:20:56.509Z,610
2017-05-30T09:21:37.059Z,610
2017-05-30T09:22:17.609Z,640
2017-05-30T09:22:58.158Z,720
2017-05-30T09:23:38.709Z,800
2017-05-30T09:24:19.260Z,765
2017-05-30T09:24:59.814Z,730
2017-05-30T09:25:40.359Z,780
2017-05-30T09:26:20.912Z,850
2017-05-30T09:27:01.451Z,895
2017-05-30T09:27:42.011Z,905
2017-05-30T09:28:22.561Z,920
2017-05-30T09:29:03.118Z,1125
2017-05-30T09:29:43.669Z,1280
2017-05-30T09:30:24.205Z,1280
2017-05-30T09:31:04.752Z,1115
2017-05-30T09:31:45.301Z,1350
2017-05-30T09:32:25.853Z,940
2017-05-30T09:33:06.396Z,985
2017-05-30T09:33:46.938Z,995
2017-05-30T09:34:27.476Z,1015
2017-05-30T09:35:08.017Z,970